Time;durP1;ratioP1;P1;durP2;ratioP2;P2;SDS_P1;SDS_P2;PMS_P1;PMS_P2;Temp;Humidity;BMP_temperature;BMP_pressure;BME280_temperature;BME280_humidity;BME280_pressure;Samples;Min_cycle;Max_cycle;Signal;HPM_P1;HPM_P2
2023/04/11 00:00:10;;;;;;;5.23;1.37;;;14.40;63.30;;;;;;5070340;28;20982;-71
2023/04/11 00:02:37;;;;;;;1.53;1.30;;;14.50;62.20;;;;;;5069989;28;20725;-72
2023/04/11 00:05:07;;;;;;;4.73;1.67;;;14.50;62.40;;;;;;5068713;28;20457;-72
2023/04/11 00:07:33;;;;;;;4.07;1.30;;;14.40;63.70;;;;;;5070243;28;20422;-72
2023/04/11 00:09:58;;;;;;;4.83;1.17;;;14.50;62.80;;;;;;5068384;28;20850;-71
2023/04/11 00:12:24;;;;;;;1.97;1.10;;;14.40;64.90;;;;;;5067914;28;20218;-73
2023/04/11 00:14:52;;;;;;;2.50;1.17;;;14.40;64.50;;;;;;5070221;28;20554;-72
2023/04/11 00:17:19;;;;;;;2.30;1.00;;;14.30;64.10;;;;;;5068154;28;20743;-73
2023/04/11 00:19:45;;;;;;;2.40;0.87;;;14.40;64.10;;;;;;5069842;28;20785;-72
2023/04/11 00:22:12;;;;;;;2.00;1.10;;;14.40;65.80;;;;;;5085063;28;20555;-72
2023/04/11 00:24:38;;;;;;;5.90;1.30;;;14.40;65.90;;;;;;5069620;28;20428;-72
2023/04/11 00:27:04;;;;;;;2.03;1.40;;;14.30;67.10;;;;;;5069719;28;20409;-72
2023/04/11 00:29:32;;;;;;;2.60;1.27;;;14.30;65.50;;;;;;5068340;28;20913;-72
2023/04/11 00:31:58;;;;;;;4.20;1.43;;;14.30;66.80;;;;;;5069557;28;20681;-72
2023/04/11 00:34:24;;;;;;;2.60;1.00;;;14.30;64.90;;;;;;5069703;28;20439;-72
2023/04/11 00:36:50;;;;;;;2.23;1.30;;;14.30;65.40;;;;;;5068185;28;20504;-72
2023/04/11 00:39:19;;;;;;;1.57;1.27;;;14.30;64.20;;;;;;5069276;28;20503;-72
2023/04/11 00:41:45;;;;;;;3.97;1.30;;;14.40;64.50;;;;;;5069428;28;20575;-72
2023/04/11 00:44:12;;;;;;;4.00;1.30;;;14.40;64.60;;;;;;5069375;28;20424;-72
2023/04/11 00:46:40;;;;;;;1.20;0.70;;;14.40;64.40;;;;;;5069146;28;20421;-72
2023/04/11 00:49:06;;;;;;;2.50;1.13;;;14.40;64.30;;;;;;5069178;28;20732;-72
2023/04/11 00:51:32;;;;;;;4.03;1.50;;;14.40;65.00;;;;;;5069017;28;20516;-71
2023/04/11 00:53:57;;;;;;;1.97;1.47;;;14.40;64.80;;;;;;5050658;28;20198;-72
2023/04/11 00:56:24;;;;;;;3.90;1.90;;;14.40;64.80;;;;;;5069177;28;20215;-72
2023/04/11 00:58:49;;;;;;;4.00;1.40;;;14.50;64.80;;;;;;5069317;28;20186;-72
2023/04/11 01:01:15;;;;;;;6.50;0.97;;;14.40;65.50;;;;;;5069316;28;20812;-72
2023/04/11 01:03:41;;;;;;;2.40;1.23;;;14.50;65.30;;;;;;5069355;28;20203;-72
2023/04/11 01:06:09;;;;;;;1.10;1.00;;;14.40;65.20;;;;;;5069094;28;20273;-72
2023/04/11 01:08:37;;;;;;;1.60;1.20;;;14.40;65.90;;;;;;5069367;28;20558;-72
2023/04/11 01:11:03;;;;;;;3.10;1.17;;;14.40;66.70;;;;;;5067889;28;20431;-72
2023/04/11 01:13:33;;;;;;;2.53;1.30;;;14.40;68.70;;;;;;5069128;28;20450;-73
2023/04/11 01:15:59;;;;;;;3.40;1.20;;;14.30;70.20;;;;;;5069728;28;20509;-73
2023/04/11 01:18:25;;;;;;;2.87;1.30;;;14.30;69.20;;;;;;5069648;28;20468;-73
2023/04/11 01:20:52;;;;;;;1.30;1.03;;;14.30;69.30;;;;;;5069826;28;20504;-73
2023/04/11 01:23:22;;;;;;;2.33;1.37;;;14.30;69.00;;;;;;5068717;28;20434;-73
2023/04/11 01:25:49;;;;;;;3.50;1.20;;;14.30;69.60;;;;;;5069264;28;20423;-72
2023/04/11 01:28:14;;;;;;;4.10;1.57;;;14.20;70.40;;;;;;5069132;28;20417;-72
2023/04/11 01:30:40;;;;;;;1.40;1.10;;;14.20;70.80;;;;;;5067641;28;20748;-73
2023/04/11 01:33:06;;;;;;;3.73;1.20;;;14.20;71.20;;;;;;5068724;28;20263;-73
2023/04/11 01:35:31;;;;;;;1.43;0.93;;;14.20;71.90;;;;;;5068628;28;20190;-73
2023/04/11 01:37:57;;;;;;;7.30;1.53;;;14.20;71.70;;;;;;5067203;28;20209;-73
2023/04/11 01:40:23;;;;;;;1.57;0.80;;;14.20;71.50;;;;;;5068386;28;20228;-73
2023/04/11 01:42:50;;;;;;;8.17;1.23;;;14.20;72.30;;;;;;5068459;28;20218;-72
2023/04/11 01:45:19;;;;;;;3.97;1.33;;;14.20;72.10;;;;;;5068508;28;20544;-73
2023/04/11 01:47:44;;;;;;;2.97;1.30;;;14.20;72.80;;;;;;5068455;28;20417;-72
2023/04/11 01:50:10;;;;;;;6.90;1.20;;;14.20;73.10;;;;;;5068522;28;20461;-72
2023/04/11 01:52:36;;;;;;;1.80;1.40;;;14.20;73.90;;;;;;5066641;28;20628;-73
2023/04/11 01:55:03;;;;;;;3.37;1.60;;;14.10;78.30;;;;;;5068201;28;20431;-73
2023/04/11 01:57:28;;;;;;;3.10;1.70;;;14.00;80.00;;;;;;5068239;28;20421;-73
2023/04/11 01:59:54;;;;;;;1.90;1.30;;;14.00;83.30;;;;;;5068401;28;20428;-73
2023/04/11 02:02:19;;;;;;;2.80;1.30;;;14.00;85.20;;;;;;5066600;28;20226;-73
2023/04/11 02:04:45;;;;;;;1.77;1.40;;;13.90;85.20;;;;;;5068200;28;20266;-73
2023/04/11 02:07:11;;;;;;;2.13;1.30;;;13.90;86.00;;;;;;5068257;28;20187;-72
2023/04/11 02:09:36;;;;;;;1.90;1.20;;;13.90;87.60;;;;;;5066925;28;20204;-73
2023/04/11 02:12:02;;;;;;;2.43;1.30;;;13.80;86.20;;;;;;5068399;28;20206;-72
2023/04/11 02:14:40;;;;;;;1.30;1.20;;;13.70;86.90;;;;;;5068090;28;20280;-72
2023/04/11 02:17:08;;;;;;;3.87;1.30;;;13.70;87.20;;;;;;5068179;28;20856;-72
2023/04/11 02:19:35;;;;;;;3.50;1.40;;;13.70;86.90;;;;;;5066489;28;20528;-72
2023/04/11 02:22:01;;;;;;;5.87;1.57;;;13.70;87.10;;;;;;5067892;28;20859;-72
2023/04/11 02:24:29;;;;;;;4.33;1.83;;;13.70;88.50;;;;;;5066841;28;20471;-72
2023/04/11 02:26:55;;;;;;;2.87;1.70;;;13.60;88.90;;;;;;5066484;28;20432;-72
2023/04/11 02:29:21;;;;;;;1.70;1.33;;;13.70;90.00;;;;;;5066749;28;20784;-72
2023/04/11 02:31:49;;;;;;;2.10;1.30;;;13.70;91.50;;;;;;5067864;28;20296;-73
2023/04/11 02:34:15;;;;;;;2.93;1.67;;;13.60;98.90;;;;;;5068734;28;20231;-72
2023/04/11 02:36:42;;;;;;;4.80;1.97;;;13.40;99.90;;;;;;5070423;28;20427;-72
2023/04/11 02:39:08;;;;;;;4.03;1.80;;;13.30;99.90;;;;;;5071580;28;20660;-72
2023/04/11 02:41:37;;;;;;;1.70;1.60;;;13.00;99.90;;;;;;5071456;28;20858;-71
2023/04/11 02:44:02;;;;;;;4.83;2.10;;;12.80;99.90;;;;;;5053461;28;20213;-71
2023/04/11 02:46:28;;;;;;;2.97;1.90;;;12.60;99.90;;;;;;5070507;28;20430;-72
2023/04/11 02:48:53;;;;;;;6.90;1.90;;;12.50;99.90;;;;;;5069866;28;20194;-72
2023/04/11 02:51:19;;;;;;;2.37;1.57;;;12.40;99.90;;;;;;5071614;28;20240;-72
2023/04/11 02:53:45;;;;;;;2.17;1.50;;;12.30;99.90;;;;;;5071562;28;20225;-72
2023/04/11 02:56:10;;;;;;;5.60;2.17;;;12.30;99.90;;;;;;5071658;28;20208;-72
2023/04/11 02:58:40;;;;;;;2.57;1.87;;;12.20;99.90;;;;;;5070336;28;20206;-72
2023/04/11 03:01:06;;;;;;;4.47;2.20;;;12.10;99.90;;;;;;5071694;28;20216;-72
2023/04/11 03:03:32;;;;;;;1.50;1.40;;;12.00;99.90;;;;;;5071528;28;20431;-71
2023/04/11 03:05:58;;;;;;;1.57;1.47;;;11.90;99.90;;;;;;5071449;28;20469;-71
2023/04/11 03:08:24;;;;;;;2.57;1.70;;;11.90;99.90;;;;;;5077660;28;20420;-72
2023/04/11 03:10:50;;;;;;;2.77;1.70;;;11.80;99.90;;;;;;5083702;28;20450;-72
2023/04/11 03:13:15;;;;;;;5.03;1.90;;;11.70;99.90;;;;;;5091041;28;20201;-71
2023/04/11 03:15:41;;;;;;;1.57;1.47;;;11.60;99.90;;;;;;5072015;28;20196;-71
2023/04/11 03:18:06;;;;;;;2.13;1.40;;;11.60;99.90;;;;;;5070595;28;20601;-72
2023/04/11 03:20:32;;;;;;;1.50;1.40;;;11.50;99.90;;;;;;5070691;28;20185;-71
2023/04/11 03:22:58;;;;;;;2.70;1.53;;;11.40;99.90;;;;;;5070391;28;20225;-72
2023/04/11 03:25:23;;;;;;;1.93;1.43;;;11.40;99.90;;;;;;5071829;28;20198;-72
2023/04/11 03:27:49;;;;;;;2.30;1.13;;;11.30;99.90;;;;;;5071773;28;20607;-71
2023/04/11 03:30:15;;;;;;;4.93;1.00;;;11.10;99.90;;;;;;5069863;28;20724;-72
2023/04/11 03:32:41;;;;;;;3.53;1.50;;;11.00;99.90;;;;;;5071514;28;20255;-71
2023/04/11 03:35:06;;;;;;;1.93;1.00;;;11.00;99.90;;;;;;5069990;28;20193;-71
2023/04/11 03:37:32;;;;;;;2.50;1.00;;;10.80;99.90;;;;;;5069678;28;20197;-71
2023/04/11 03:39:58;;;;;;;1.40;1.23;;;10.80;99.90;;;;;;5070718;28;20452;-71
2023/04/11 03:42:23;;;;;;;3.77;1.57;;;10.70;99.90;;;;;;5071118;28;20300;-71
2023/04/11 03:44:49;;;;;;;1.97;1.20;;;10.70;99.90;;;;;;5070951;28;20797;-71
2023/04/11 03:47:15;;;;;;;3.23;1.27;;;10.70;99.90;;;;;;5070129;28;20190;-71
2023/04/11 03:49:40;;;;;;;1.60;1.10;;;10.70;99.90;;;;;;5070535;28;20206;-71
2023/04/11 03:52:08;;;;;;;2.53;1.40;;;10.70;99.90;;;;;;5070541;28;20719;-71
2023/04/11 03:54:34;;;;;;;2.10;1.03;;;10.70;99.90;;;;;;5070430;28;20186;-71
2023/04/11 03:56:59;;;;;;;1.73;1.03;;;10.60;99.90;;;;;;5070513;28;20419;-71
2023/04/11 03:59:25;;;;;;;1.57;1.17;;;10.60;99.90;;;;;;5069060;28;20656;-70
2023/04/11 04:01:51;;;;;;;0.83;0.80;;;10.50;99.90;;;;;;5068577;28;20358;-72
2023/04/11 04:04:16;;;;;;;2.00;1.43;;;10.60;99.90;;;;;;5070172;28;20190;-71
2023/04/11 04:06:44;;;;;;;3.63;3.30;;;10.60;99.90;;;;;;5069125;28;20724;-72
2023/04/11 04:09:10;;;;;;;3.43;3.13;;;10.50;99.90;;;;;;5070202;28;20607;-72
2023/04/11 04:11:35;;;;;;;4.00;2.30;;;10.50;99.90;;;;;;5070124;28;20466;-72
2023/04/11 04:14:01;;;;;;;2.47;1.83;;;10.50;99.90;;;;;;5070244;28;20249;-71
2023/04/11 04:16:27;;;;;;;3.00;1.27;;;10.50;99.90;;;;;;5068681;28;20732;-71
2023/04/11 04:18:52;;;;;;;1.90;1.23;;;10.40;99.90;;;;;;5069958;28;20202;-72
2023/04/11 04:21:18;;;;;;;4.20;0.80;;;10.40;99.90;;;;;;5070169;28;20257;-71
2023/04/11 04:23:48;;;;;;;1.80;0.73;;;10.30;99.90;;;;;;5069977;28;20227;-70
2023/04/11 04:26:23;;;;;;;1.83;0.63;;;10.30;99.90;;;;;;5068608;28;20191;-70
2023/04/11 04:28:49;;;;;;;0.77;0.57;;;10.40;99.90;;;;;;5069996;28;20971;-71
2023/04/11 04:31:21;;;;;;;0.90;0.73;;;10.30;99.90;;;;;;5069567;28;20429;-71
2023/04/11 04:33:48;;;;;;;3.13;1.07;;;10.30;99.90;;;;;;5068333;28;20402;-71
2023/04/11 04:36:16;;;;;;;0.73;0.53;;;10.40;99.90;;;;;;5068776;28;20418;-71
2023/04/11 04:38:43;;;;;;;0.70;0.50;;;10.30;99.90;;;;;;5066871;28;20448;-71
2023/04/11 04:41:14;;;;;;;1.00;0.50;;;10.30;99.90;;;;;;5068772;28;20453;-71
2023/04/11 04:43:43;;;;;;;1.13;0.70;;;10.40;99.90;;;;;;5068592;28;20522;-71
2023/04/11 04:46:09;;;;;;;1.67;0.90;;;10.30;99.90;;;;;;5068534;28;20417;-71
2023/04/11 04:48:35;;;;;;;0.80;0.70;;;10.30;99.90;;;;;;5068722;28;20425;-71
2023/04/11 04:51:03;;;;;;;1.87;1.10;;;10.20;99.90;;;;;;5068314;28;20432;-71
2023/04/11 04:53:28;;;;;;;2.20;0.67;;;10.20;99.90;;;;;;5068868;28;20448;-70
2023/04/11 04:55:54;;;;;;;1.30;0.90;;;10.20;99.90;;;;;;5066972;28;20420;-71
2023/04/11 04:58:20;;;;;;;2.80;0.80;;;10.00;99.90;;;;;;5067421;28;20179;-72
2023/04/11 05:00:48;;;;;;;4.73;0.70;;;9.80;99.90;;;;;;5068281;28;20453;-72
2023/04/11 05:03:16;;;;;;;1.77;1.67;;;9.60;99.90;;;;;;5066520;28;20310;-71
2023/04/11 05:05:41;;;;;;;1.93;1.83;;;9.40;99.90;;;;;;5066561;28;20435;-71
2023/04/11 05:08:07;;;;;;;2.30;1.20;;;9.40;99.90;;;;;;5066469;28;20542;-71
2023/04/11 05:10:32;;;;;;;1.60;1.00;;;9.40;99.90;;;;;;5067976;28;20188;-72
2023/04/11 05:12:58;;;;;;;2.23;1.00;;;9.40;99.90;;;;;;5067106;28;20218;-72
2023/04/11 05:15:23;;;;;;;1.53;0.77;;;9.20;99.90;;;;;;5066440;28;20567;-72
2023/04/11 05:17:49;;;;;;;1.73;0.70;;;9.20;99.90;;;;;;5066195;28;20191;-71
2023/04/11 05:20:14;;;;;;;2.70;0.77;;;9.20;99.90;;;;;;5067553;28;20219;-71
2023/04/11 05:22:41;;;;;;;1.83;0.70;;;9.10;99.90;;;;;;5065556;28;20242;-71
2023/04/11 05:25:08;;;;;;;0.83;0.60;;;9.10;99.90;;;;;;5066440;28;20179;-71
2023/04/11 05:27:33;;;;;;;2.93;1.00;;;9.10;99.90;;;;;;5065884;28;20425;-72
2023/04/11 05:29:59;;;;;;;1.50;1.00;;;9.10;99.90;;;;;;5067291;28;20939;-71
2023/04/11 05:32:25;;;;;;;1.10;0.60;;;9.10;99.90;;;;;;5065730;28;20681;-71
2023/04/11 05:34:53;;;;;;;1.40;1.00;;;9.00;99.90;;;;;;5049052;28;20429;-71
2023/04/11 05:37:19;;;;;;;3.67;1.10;;;9.00;99.90;;;;;;5065921;28;20257;-71
2023/04/11 05:39:46;;;;;;;3.33;0.87;;;9.00;99.90;;;;;;5067233;28;20788;-71
2023/04/11 05:42:11;;;;;;;4.57;1.00;;;9.00;99.90;;;;;;5067809;28;20473;-72
2023/04/11 05:44:38;;;;;;;1.37;0.53;;;8.90;99.90;;;;;;5065811;28;21252;-72
2023/04/11 05:47:04;;;;;;;1.00;0.73;;;8.80;99.90;;;;;;5066153;28;20658;-71
2023/04/11 05:49:29;;;;;;;1.27;0.67;;;8.70;99.90;;;;;;5065965;28;20437;-72
2023/04/11 05:51:55;;;;;;;1.20;0.50;;;8.60;99.90;;;;;;5066374;28;20218;-71
2023/04/11 05:54:34;;;;;;;1.17;0.70;;;8.50;99.90;;;;;;5049136;28;20281;-71
2023/04/11 05:57:01;;;;;;;0.90;0.57;;;8.50;99.90;;;;;;5067256;28;20229;-72
2023/04/11 05:59:29;;;;;;;0.80;0.60;;;8.40;99.90;;;;;;5065938;28;20538;-71
2023/04/11 06:01:55;;;;;;;2.30;0.80;;;8.40;99.90;;;;;;5067051;28;20507;-72
2023/04/11 06:04:21;;;;;;;0.90;0.70;;;8.30;99.90;;;;;;5067175;28;20797;-72
2023/04/11 06:06:46;;;;;;;1.83;0.50;;;8.20;99.90;;;;;;5067332;28;20429;-72
2023/04/11 06:09:12;;;;;;;1.93;0.60;;;8.20;99.90;;;;;;5066405;28;20183;-71
2023/04/11 06:11:38;;;;;;;4.40;0.50;;;8.30;99.90;;;;;;5069281;28;20611;-71
2023/04/11 06:14:03;;;;;;;2.00;0.60;;;8.40;99.90;;;;;;5071402;28;20194;-71
2023/04/11 06:16:31;;;;;;;2.13;0.40;;;8.30;99.90;;;;;;5071237;28;20670;-70
2023/04/11 06:18:57;;;;;;;2.53;0.90;;;8.30;99.90;;;;;;5069474;28;20611;-71
2023/04/11 06:21:22;;;;;;;1.87;0.70;;;8.30;99.90;;;;;;5070612;28;20465;-70
2023/04/11 06:23:48;;;;;;;1.00;0.53;;;8.30;99.90;;;;;;5070651;28;20203;-71
2023/04/11 06:26:13;;;;;;;0.90;0.50;;;8.30;99.90;;;;;;5069618;28;20244;-71
2023/04/11 06:28:39;;;;;;;2.40;0.50;;;8.30;99.90;;;;;;5069124;28;20659;-71
2023/04/11 06:31:07;;;;;;;2.60;0.60;;;8.30;99.90;;;;;;5052613;28;20191;-70
2023/04/11 06:33:32;;;;;;;2.70;0.80;;;8.20;99.90;;;;;;5070254;28;20210;-70
2023/04/11 06:35:58;;;;;;;4.13;0.53;;;8.10;99.90;;;;;;5069734;28;20421;-70
2023/04/11 06:38:24;;;;;;;1.37;0.63;;;8.10;99.90;;;;;;5071112;28;20277;-70
2023/04/11 06:40:51;;;;;;;2.10;0.57;;;8.10;99.90;;;;;;5070321;28;20199;-70
2023/04/11 06:43:16;;;;;;;4.40;0.60;;;8.00;99.90;;;;;;5068953;28;20638;-70
2023/04/11 06:45:42;;;;;;;2.73;0.50;;;8.00;99.90;;;;;;5068947;28;20432;-70
2023/04/11 06:48:08;;;;;;;2.47;0.60;;;7.90;99.90;;;;;;5068801;28;20278;-70
2023/04/11 06:50:38;;;;;;;3.13;0.73;;;8.00;99.90;;;;;;5070364;28;20569;-70
2023/04/11 06:53:03;;;;;;;0.90;0.60;;;8.00;99.90;;;;;;5070208;28;20252;-70
2023/04/11 06:55:29;;;;;;;1.10;0.60;;;8.00;99.90;;;;;;5070259;28;20810;-70
2023/04/11 06:57:55;;;;;;;1.10;0.40;;;8.00;99.90;;;;;;5068688;28;20180;-70
2023/04/11 07:00:21;;;;;;;3.70;0.70;;;8.10;99.90;;;;;;5069459;28;20429;-70
2023/04/11 07:02:46;;;;;;;8.80;0.90;;;8.00;99.90;;;;;;5069845;28;20393;-69
2023/04/11 07:05:12;;;;;;;1.67;0.67;;;8.10;99.90;;;;;;5070134;28;20262;-71
2023/04/11 07:07:37;;;;;;;0.83;0.60;;;8.10;99.90;;;;;;5069004;28;20187;-70
2023/04/11 07:10:04;;;;;;;0.70;0.40;;;8.20;99.90;;;;;;5070250;28;20643;-70
2023/04/11 07:12:30;;;;;;;1.23;0.67;;;8.10;99.90;;;;;;5069596;28;20249;-70
2023/04/11 07:14:55;;;;;;;2.50;0.60;;;8.10;99.90;;;;;;5068278;28;20421;-70
2023/04/11 07:17:21;;;;;;;1.37;0.67;;;8.00;99.90;;;;;;5068365;28;20237;-70
2023/04/11 07:19:46;;;;;;;1.37;0.50;;;8.10;99.90;;;;;;5069672;28;20191;-70
2023/04/11 07:22:12;;;;;;;2.10;0.80;;;8.30;99.90;;;;;;5068366;28;20223;-70
2023/04/11 07:24:37;;;;;;;4.63;1.00;;;8.10;99.90;;;;;;5068202;28;20190;-70
2023/04/11 07:27:03;;;;;;;1.63;0.63;;;7.90;99.90;;;;;;5085141;28;20601;-70
2023/04/11 07:29:29;;;;;;;1.53;0.80;;;8.20;99.90;;;;;;5052405;28;20651;-70
2023/04/11 07:31:55;;;;;;;2.80;0.90;;;8.30;99.90;;;;;;5069346;28;20229;-70
2023/04/11 07:34:21;;;;;;;1.50;0.80;;;8.40;99.90;;;;;;5084712;28;20980;-70
2023/04/11 07:36:46;;;;;;;2.13;0.60;;;8.40;99.90;;;;;;5069282;28;20414;-70
2023/04/11 07:39:12;;;;;;;1.60;0.60;;;8.50;99.90;;;;;;5069181;28;20198;-70
2023/04/11 07:41:38;;;;;;;5.73;0.90;;;8.50;99.90;;;;;;5067824;28;20236;-69
2023/04/11 07:44:08;;;;;;;1.40;0.53;;;8.40;99.90;;;;;;5052426;28;20734;-70
2023/04/11 07:46:34;;;;;;;0.90;0.70;;;8.50;99.90;;;;;;5069911;28;20476;-70
2023/04/11 07:49:00;;;;;;;1.93;0.63;;;8.70;99.90;;;;;;5067870;28;20417;-70
2023/04/11 07:51:26;;;;;;;1.40;0.60;;;8.70;99.90;;;;;;5067610;28;20490;-70
2023/04/11 07:53:53;;;;;;;1.63;0.70;;;8.70;99.90;;;;;;5067402;28;20211;-70
2023/04/11 07:56:18;;;;;;;1.67;0.57;;;8.80;99.90;;;;;;5067395;28;20474;-70
2023/04/11 07:58:44;;;;;;;3.80;0.70;;;8.80;99.90;;;;;;5069285;28;20422;-70
2023/04/11 08:01:23;;;;;;;3.50;0.90;;;9.00;99.90;;;;;;5069942;28;20183;-70
2023/04/11 08:03:53;;;;;;;2.57;0.70;;;9.10;99.90;;;;;;5066956;28;20654;-70
2023/04/11 08:06:19;;;;;;;1.20;0.90;;;9.30;99.90;;;;;;5069313;28;20504;-70
2023/04/11 08:08:46;;;;;;;6.10;1.00;;;9.40;99.90;;;;;;5068564;28;20409;-70
2023/04/11 08:11:12;;;;;;;2.77;0.80;;;9.40;99.90;;;;;;5068701;28;20199;-70
2023/04/11 08:13:38;;;;;;;3.83;1.00;;;9.50;99.90;;;;;;5068582;28;20437;-70
2023/04/11 08:16:09;;;;;;;9.10;1.10;;;9.60;99.90;;;;;;5068522;28;20570;-70
2023/04/11 08:18:36;;;;;;;6.90;0.80;;;9.90;99.90;;;;;;5068543;28;20418;-70
2023/04/11 08:21:02;;;;;;;7.73;1.17;;;9.90;99.90;;;;;;5070011;28;20421;-70
2023/04/11 08:23:28;;;;;;;26.30;14.97;;;9.80;99.90;;;;;;5068441;28;20534;-70
2023/04/11 08:25:55;;;;;;;2.50;1.00;;;9.80;99.90;;;;;;5068424;28;20901;-70
2023/04/11 08:28:21;;;;;;;3.70;0.90;;;10.10;99.90;;;;;;5068404;28;20475;-70
2023/04/11 08:30:47;;;;;;;8.77;1.57;;;10.20;99.90;;;;;;5083816;28;20474;-70
2023/04/11 08:33:14;;;;;;;3.30;1.07;;;10.20;99.90;;;;;;5069886;28;20522;-71
2023/04/11 08:35:43;;;;;;;3.03;1.00;;;10.20;99.90;;;;;;5069414;28;20195;-71
2023/04/11 08:38:09;;;;;;;2.10;1.03;;;10.30;99.90;;;;;;5068775;28;20515;-70
2023/04/11 08:40:35;;;;;;;3.27;0.80;;;10.10;99.90;;;;;;5069417;28;20474;-70
2023/04/11 08:43:00;;;;;;;8.00;1.20;;;10.10;99.90;;;;;;5068923;28;20465;-70
2023/04/11 08:45:27;;;;;;;8.13;1.47;;;10.00;99.90;;;;;;5067328;28;20183;-70
2023/04/11 08:47:53;;;;;;;4.20;1.43;;;10.00;99.90;;;;;;5069366;28;20246;-70
2023/04/11 08:50:18;;;;;;;2.87;1.00;;;10.10;99.90;;;;;;5067432;28;20418;-70
2023/04/11 08:52:48;;;;;;;3.87;0.83;;;10.10;99.90;;;;;;5068888;28;20578;-71
2023/04/11 08:55:13;;;;;;;4.90;1.00;;;10.50;99.90;;;;;;5068245;28;20671;-70
2023/04/11 08:57:39;;;;;;;2.13;1.00;;;10.90;99.90;;;;;;5068051;28;20461;-71
2023/04/11 09:00:17;;;;;;;4.30;0.93;;;11.10;99.90;;;;;;5068076;28;20274;-70
2023/04/11 09:03:00;;;;;;;5.37;1.17;;;11.40;99.90;;;;;;5067722;28;20234;-70
2023/04/11 09:05:31;;;;;;;9.33;1.90;;;11.40;99.90;;;;;;5067562;28;20798;-70
2023/04/11 09:08:01;;;;;;;3.33;1.00;;;11.40;99.90;;;;;;5067667;28;20411;-70
2023/04/11 09:10:27;;;;;;;3.97;1.10;;;11.80;99.90;;;;;;5067622;28;20420;-70
2023/04/11 09:12:54;;;;;;;8.10;2.10;;;12.10;99.90;;;;;;5067683;28;20446;-69
2023/04/11 09:15:22;;;;;;;3.93;1.70;;;12.70;99.90;;;;;;5067583;28;20672;-70
2023/04/11 09:17:48;;;;;;;6.63;1.77;;;12.70;99.90;;;;;;5065771;28;20757;-70
2023/04/11 09:20:19;;;;;;;12.10;1.67;;;12.80;99.90;;;;;;5067955;28;20451;-71
2023/04/11 09:22:48;;;;;;;1.70;1.20;;;12.90;99.90;;;;;;5068349;28;20858;-70
2023/04/11 09:25:14;;;;;;;3.13;0.90;;;12.90;99.90;;;;;;5067221;28;20457;-71
2023/04/11 09:27:39;;;;;;;4.33;1.80;;;13.10;99.90;;;;;;5067344;28;20452;-70
2023/04/11 09:30:22;;;;;;;7.57;1.83;;;13.00;99.90;;;;;;5067167;28;20420;-70
2023/04/11 09:32:53;;;;;;;5.73;1.57;;;13.00;99.90;;;;;;5065595;28;20210;-70
2023/04/11 09:35:23;;;;;;;5.10;2.10;;;13.20;99.90;;;;;;5067372;28;20933;-70
2023/04/11 09:37:55;;;;;;;6.17;1.40;;;13.50;99.90;;;;;;5066297;28;20514;-70
2023/04/11 09:40:24;;;;;;;7.67;1.30;;;13.50;98.00;;;;;;5067317;28;20951;-71
2023/04/11 09:42:59;;;;;;;5.40;1.30;;;13.20;99.90;;;;;;5082337;28;20483;-71
2023/04/11 09:45:26;;;;;;;5.17;2.50;;;12.90;99.10;;;;;;5066766;28;20757;-69
2023/04/11 09:47:54;;;;;;;3.80;1.97;;;12.90;99.90;;;;;;5067239;28;20430;-69
2023/04/11 09:50:21;;;;;;;3.23;1.23;;;13.10;99.90;;;;;;5067526;28;20990;-69
2023/04/11 09:52:46;;;;;;;6.17;1.40;;;13.10;99.90;;;;;;5067251;28;20465;-70
2023/04/11 09:55:15;;;;;;;6.83;2.20;;;13.10;99.90;;;;;;5066984;28;20417;-71
2023/04/11 09:57:46;;;;;;;6.17;3.00;;;13.10;99.00;;;;;;5065666;28;20205;-71
2023/04/11 10:00:15;;;;;;;9.40;3.60;;;13.00;99.70;;;;;;5065783;28;20432;-70
2023/04/11 10:02:43;;;;;;;3.00;0.97;;;13.00;99.20;;;;;;5068458;28;20540;-70
2023/04/11 10:05:09;;;;;;;5.60;3.20;;;13.00;99.90;;;;;;5082909;28;20445;-70
2023/04/11 10:07:47;;;;;;;8.60;2.30;;;12.70;99.50;;;;;;5082249;28;20435;-71
2023/04/11 10:10:21;;;;;;;5.30;1.27;;;12.50;99.50;;;;;;5067162;28;20396;-69
2023/04/11 10:12:48;;;;;;;5.33;1.27;;;12.20;98.60;;;;;;5067306;28;20447;-71
2023/04/11 10:15:14;;;;;;;4.53;1.73;;;12.00;98.10;;;;;;5067027;28;20423;-71
2023/04/11 10:17:40;;;;;;;7.33;1.83;;;11.70;98.80;;;;;;5067187;28;20420;-72
2023/04/11 10:20:47;;;;;;;9.20;1.73;;;11.60;99.50;;;;;;5048945;28;21069;-71
2023/04/11 10:23:13;;;;;;;6.00;1.20;;;11.50;99.90;;;;;;5046763;28;20494;-71
2023/04/11 10:25:59;;;;;;;10.70;1.83;;;11.60;99.90;;;;;;5078779;28;20494;-71
2023/04/11 10:28:38;;;;;;;5.80;1.00;;;11.80;99.90;;;;;;5067289;28;20832;-71
2023/04/11 10:31:08;;;;;;;4.50;1.63;;;12.60;99.90;;;;;;5067336;28;20442;-71
2023/04/11 10:33:36;;;;;;;6.47;2.00;;;13.20;96.00;;;;;;5065859;28;20463;-71
2023/04/11 10:36:09;;;;;;;4.07;1.40;;;13.40;96.20;;;;;;5067244;28;20804;-71
2023/04/11 10:38:45;;;;;;;3.30;1.50;;;13.30;95.80;;;;;;5067287;28;20521;-71
2023/04/11 10:41:27;;;;;;;2.90;1.40;;;12.50;94.10;;;;;;5065468;28;20435;-71
2023/04/11 10:44:13;;;;;;;4.33;1.77;;;12.10;97.60;;;;;;5065400;28;20439;-71
2023/04/11 10:46:47;;;;;;;2.13;1.23;;;11.80;99.90;;;;;;5067529;28;20411;-71
2023/04/11 10:49:39;;;;;;;3.57;1.17;;;11.70;99.90;;;;;;5067288;28;20415;-70
2023/04/11 10:52:26;;;;;;;5.50;1.60;;;11.30;99.90;;;;;;5065369;28;20982;-71
2023/04/11 10:54:52;;;;;;;3.37;1.07;;;11.50;99.90;;;;;;5065674;28;20861;-72
2023/04/11 10:57:19;;;;;;;3.07;0.90;;;12.30;99.90;;;;;;5070466;28;20911;-71
2023/04/11 10:59:50;;;;;;;5.23;1.33;;;12.90;99.90;;;;;;5070435;28;20429;-71
2023/04/11 11:02:18;;;;;;;1.33;0.80;;;13.20;98.30;;;;;;5070331;28;20812;-70
2023/04/11 11:04:43;;;;;;;5.23;1.10;;;13.50;98.60;;;;;;5068441;28;20808;-71
2023/04/11 11:07:14;;;;;;;4.93;1.03;;;14.00;94.30;;;;;;5070335;28;20419;-71
2023/04/11 11:09:40;;;;;;;6.60;1.70;;;14.20;95.70;;;;;;5069124;28;20174;-71
2023/04/11 11:12:10;;;;;;;4.20;1.20;;;14.00;94.80;;;;;;5070204;28;20994;-71
2023/04/11 11:14:38;;;;;;;3.77;1.20;;;14.00;93.60;;;;;;5070305;28;20264;-71
2023/04/11 11:17:04;;;;;;;4.50;1.00;;;13.60;94.90;;;;;;5069152;28;20415;-71
2023/04/11 11:19:30;;;;;;;1.60;1.10;;;13.60;97.80;;;;;;5070237;28;20442;-71
2023/04/11 11:22:02;;;;;;;4.17;1.67;;;13.50;96.30;;;;;;5069901;28;20515;-71
2023/04/11 11:24:27;;;;;;;2.40;0.77;;;13.50;95.20;;;;;;5070188;28;21155;-71
2023/04/11 11:26:54;;;;;;;2.67;1.13;;;13.80;92.90;;;;;;5051934;28;20423;-72
2023/04/11 11:29:32;;;;;;;5.27;0.70;;;14.30;95.10;;;;;;5085393;28;20211;-71
2023/04/11 11:31:59;;;;;;;2.93;1.07;;;14.40;91.30;;;;;;5069690;28;20519;-72
2023/04/11 11:34:33;;;;;;;3.60;1.07;;;14.50;91.80;;;;;;5068751;28;20462;-72
2023/04/11 11:37:03;;;;;;;3.70;1.30;;;14.80;91.80;;;;;;5070144;28;20408;-72
2023/04/11 11:39:30;;;;;;;3.37;1.27;;;14.70;88.90;;;;;;5070183;28;20806;-71
2023/04/11 11:41:56;;;;;;;3.00;1.00;;;14.50;88.80;;;;;;5070106;28;20982;-71
2023/04/11 11:44:29;;;;;;;3.93;1.10;;;14.00;89.10;;;;;;5070155;28;20413;-72
2023/04/11 11:47:05;;;;;;;3.77;1.13;;;13.80;91.00;;;;;;5068869;28;20952;-72
2023/04/11 11:49:53;;;;;;;3.90;1.27;;;13.60;90.70;;;;;;5070182;28;20409;-71
2023/04/11 11:52:32;;;;;;;4.70;1.40;;;13.60;91.00;;;;;;5068992;28;20433;-72
2023/04/11 11:54:57;;;;;;;3.60;1.10;;;13.40;91.80;;;;;;5069129;28;20491;-71
2023/04/11 11:57:23;;;;;;;4.07;1.37;;;13.40;92.20;;;;;;5070168;28;20863;-72
2023/04/11 11:59:53;;;;;;;3.37;1.10;;;13.60;91.90;;;;;;5070232;28;20232;-72
2023/04/11 12:02:21;;;;;;;1.80;1.37;;;13.80;90.30;;;;;;5068709;28;20221;-72
2023/04/11 12:04:47;;;;;;;2.73;0.90;;;13.80;90.40;;;;;;5070519;28;20445;-71
2023/04/11 12:07:13;;;;;;;4.97;1.70;;;13.60;90.00;;;;;;5068168;28;20461;-71
2023/04/11 12:09:39;;;;;;;2.43;1.07;;;13.40;89.00;;;;;;5070103;28;20175;-71
2023/04/11 12:12:08;;;;;;;6.93;2.17;;;13.10;91.00;;;;;;5068682;28;21010;-71
2023/04/11 12:14:34;;;;;;;5.10;1.37;;;13.20;90.60;;;;;;5070078;28;20729;-71
2023/04/11 12:16:59;;;;;;;7.93;0.93;;;13.10;84.10;;;;;;5068304;28;20416;-70
2023/04/11 12:19:26;;;;;;;4.87;0.90;;;13.30;85.20;;;;;;5069520;28;20181;-71
2023/04/11 12:21:52;;;;;;;2.80;1.30;;;13.40;82.30;;;;;;5069316;28;20228;-70
2023/04/11 12:24:17;;;;;;;6.70;1.03;;;13.80;82.70;;;;;;5068116;28;20758;-70
2023/04/11 12:26:44;;;;;;;5.70;1.23;;;14.10;81.50;;;;;;5069578;28;20186;-71
2023/04/11 12:29:10;;;;;;;2.00;0.90;;;14.30;81.90;;;;;;5067971;28;20523;-70
2023/04/11 12:31:36;;;;;;;5.10;1.20;;;14.40;77.50;;;;;;5069335;28;20420;-71
2023/04/11 12:34:01;;;;;;;5.30;1.30;;;14.70;79.30;;;;;;5068097;28;20188;-70
2023/04/11 12:36:28;;;;;;;6.60;1.17;;;14.80;76.90;;;;;;5069309;28;20548;-71
2023/04/11 12:38:54;;;;;;;3.60;1.90;;;14.90;77.20;;;;;;5084711;28;20214;-71
2023/04/11 12:41:19;;;;;;;3.43;1.00;;;15.10;77.20;;;;;;5069033;28;20913;-71
2023/04/11 12:43:45;;;;;;;5.87;1.30;;;15.10;73.20;;;;;;5069297;28;20191;-72
2023/04/11 12:46:11;;;;;;;8.83;2.20;;;15.10;70.00;;;;;;5068920;28;20206;-72
2023/04/11 12:48:36;;;;;;;4.27;1.40;;;14.80;69.70;;;;;;5067383;28;20264;-72
2023/04/11 12:51:02;;;;;;;5.53;0.90;;;14.50;68.90;;;;;;5067344;28;20206;-72